sensor_id;sensor_type;location;lat;lon;timestamp;pressure;altitude;pressure_sealevel;temperature;humidity
11523;BME280;70090;43.208;27.904;2023-11-22T00:01:48;100389.91;;;14.05;100.00
11523;BME280;70090;43.208;27.904;2023-11-22T00:04:15;100402.50;;;14.13;100.00
11523;BME280;70090;43.208;27.904;2023-11-22T00:06:43;100387.88;;;14.20;100.00
11523;BME280;70090;43.208;27.904;2023-11-22T00:09:11;100397.75;;;14.24;100.00
11523;BME280;70090;43.208;27.904;2023-11-22T00:11:38;100396.97;;;14.24;100.00
11523;BME280;70090;43.208;27.904;2023-11-22T00:14:05;100387.88;;;14.23;100.00
11523;BME280;70090;43.208;27.904;2023-11-22T00:16:31;100391.81;;;14.26;100.00
11523;BME280;70090;43.208;27.904;2023-11-22T00:18:59;100387.44;;;14.32;100.00
11523;BME280;70090;43.208;27.904;2023-11-22T00:21:26;100382.31;;;14.34;100.00
11523;BME280;70090;43.208;27.904;2023-11-22T00:23:54;100371.59;;;14.36;100.00
11523;BME280;70090;43.208;27.904;2023-11-22T00:26:23;100373.19;;;14.37;100.00
11523;BME280;70090;43.208;27.904;2023-11-22T00:28:50;100377.88;;;14.43;100.00
11523;BME280;70090;43.208;27.904;2023-11-22T00:31:19;100370.75;;;14.46;100.00
11523;BME280;70090;43.208;27.904;2023-11-22T00:33:46;100367.94;;;14.53;100.00
11523;BME280;70090;43.208;27.904;2023-11-22T00:36:13;100365.13;;;14.56;100.00
11523;BME280;70090;43.208;27.904;2023-11-22T00:38:42;100369.09;;;14.59;100.00
11523;BME280;70090;43.208;27.904;2023-11-22T00:41:09;100359.19;;;14.61;100.00
11523;BME280;70090;43.208;27.904;2023-11-22T00:43:38;100363.50;;;14.66;100.00
11523;BME280;70090;43.208;27.904;2023-11-22T00:46:05;100360.34;;;14.64;100.00
11523;BME280;70090;43.208;27.904;2023-11-22T00:48:32;100362.34;;;14.63;100.00
11523;BME280;70090;43.208;27.904;2023-11-22T00:50:59;100359.59;;;14.60;100.00
11523;BME280;70090;43.208;27.904;2023-11-22T00:53:33;100365.13;;;14.56;100.00
11523;BME280;70090;43.208;27.904;2023-11-22T00:56:00;100351.31;;;14.53;100.00
11523;BME280;70090;43.208;27.904;2023-11-22T00:58:27;100359.66;;;14.49;100.00
11523;BME280;70090;43.208;27.904;2023-11-22T01:00:55;100350.56;;;14.49;100.00
11523;BME280;70090;43.208;27.904;2023-11-22T01:03:22;100343.84;;;14.46;100.00
11523;BME280;70090;43.208;27.904;2023-11-22T01:05:49;100343.47;;;14.44;100.00
11523;BME280;70090;43.208;27.904;2023-11-22T01:08:16;100347.81;;;14.42;100.00
11523;BME280;70090;43.208;27.904;2023-11-22T01:10:44;100343.88;;;14.43;100.00
11523;BME280;70090;43.208;27.904;2023-11-22T01:13:11;100345.84;;;14.46;100.00
11523;BME280;70090;43.208;27.904;2023-11-22T01:15:40;100351.75;;;14.48;100.00
11523;BME280;70090;43.208;27.904;2023-11-22T01:18:11;100343.81;;;14.50;100.00
11523;BME280;70090;43.208;27.904;2023-11-22T01:20:38;100347.78;;;14.52;100.00
11523;BME280;70090;43.208;27.904;2023-11-22T01:23:05;100343.81;;;14.50;100.00
11523;BME280;70090;43.208;27.904;2023-11-22T01:25:32;100341.41;;;14.59;100.00
11523;BME280;70090;43.208;27.904;2023-11-22T01:27:59;100339.66;;;14.79;100.00
11523;BME280;70090;43.208;27.904;2023-11-22T01:30:26;100332.47;;;14.85;100.00
11523;BME280;70090;43.208;27.904;2023-11-22T01:32:54;100337.28;;;14.81;100.00
11523;BME280;70090;43.208;27.904;2023-11-22T01:35:22;100332.97;;;14.73;100.00
11523;BME280;70090;43.208;27.904;2023-11-22T01:37:49;100327.09;;;14.64;100.00
11523;BME280;70090;43.208;27.904;2023-11-22T01:40:17;100325.69;;;14.42;100.00
11523;BME280;70090;43.208;27.904;2023-11-22T01:42:45;100333.97;;;14.42;100.00
11523;BME280;70090;43.208;27.904;2023-11-22T01:45:12;100325.00;;;14.27;100.00
11523;BME280;70090;43.208;27.904;2023-11-22T01:47:39;100317.94;;;14.19;100.00
11523;BME280;70090;43.208;27.904;2023-11-22T01:50:07;100315.97;;;14.13;100.00
11523;BME280;70090;43.208;27.904;2023-11-22T01:52:36;100318.75;;;14.06;100.00
11523;BME280;70090;43.208;27.904;2023-11-22T01:55:05;100322.00;;;13.90;100.00
11523;BME280;70090;43.208;27.904;2023-11-22T01:57:34;100317.31;;;13.77;100.00
11523;BME280;70090;43.208;27.904;2023-11-22T02:00:01;100316.59;;;13.59;100.00
11523;BME280;70090;43.208;27.904;2023-11-22T02:02:29;100313.09;;;13.48;100.00
11523;BME280;70090;43.208;27.904;2023-11-22T02:04:57;100315.09;;;13.33;100.00
11523;BME280;70090;43.208;27.904;2023-11-22T02:07:24;100306.44;;;13.21;100.00
11523;BME280;70090;43.208;27.904;2023-11-22T02:09:55;100305.66;;;13.13;100.00
11523;BME280;70090;43.208;27.904;2023-11-22T02:12:23;100309.22;;;13.07;100.00
11523;BME280;70090;43.208;27.904;2023-11-22T02:14:50;100304.09;;;13.05;100.00
11523;BME280;70090;43.208;27.904;2023-11-22T02:17:16;100303.28;;;13.08;100.00
11523;BME280;70090;43.208;27.904;2023-11-22T02:19:44;100310.00;;;13.18;100.00
11523;BME280;70090;43.208;27.904;2023-11-22T02:22:11;100300.91;;;13.24;100.00
11523;BME280;70090;43.208;27.904;2023-11-22T02:24:39;100295.75;;;13.33;100.00
11523;BME280;70090;43.208;27.904;2023-11-22T02:27:06;100305.56;;;13.45;100.00
11523;BME280;70090;43.208;27.904;2023-11-22T02:29:33;100298.44;;;13.58;100.00
11523;BME280;70090;43.208;27.904;2023-11-22T02:32:00;100296.81;;;13.67;100.00
11523;BME280;70090;43.208;27.904;2023-11-22T02:34:27;100288.88;;;13.76;100.00
11523;BME280;70090;43.208;27.904;2023-11-22T02:36:54;100296.72;;;13.85;100.00
11523;BME280;70090;43.208;27.904;2023-11-22T02:39:21;100290.34;;;13.95;100.00
11523;BME280;70090;43.208;27.904;2023-11-22T02:41:53;100297.81;;;14.01;100.00
11523;BME280;70090;43.208;27.904;2023-11-22T02:44:20;100299.00;;;14.04;100.00
11523;BME280;70090;43.208;27.904;2023-11-22T02:46:47;100290.34;;;14.02;100.00
11523;BME280;70090;43.208;27.904;2023-11-22T02:49:14;100299.75;;;14.08;100.00
11523;BME280;70090;43.208;27.904;2023-11-22T02:51:41;100296.59;;;14.13;100.00
11523;BME280;70090;43.208;27.904;2023-11-22T02:54:07;100298.56;;;14.19;100.00
11523;BME280;70090;43.208;27.904;2023-11-22T02:56:34;100299.69;;;14.25;100.00
11523;BME280;70090;43.208;27.904;2023-11-22T02:59:03;100296.53;;;14.27;100.00
11523;BME280;70090;43.208;27.904;2023-11-22T03:01:30;100300.88;;;14.24;100.00
11523;BME280;70090;43.208;27.904;2023-11-22T03:03:57;100302.50;;;14.22;100.00
11523;BME280;70090;43.208;27.904;2023-11-22T03:06:25;100305.28;;;14.22;100.00
11523;BME280;70090;43.208;27.904;2023-11-22T03:08:53;100311.19;;;14.24;100.00
11523;BME280;70090;43.208;27.904;2023-11-22T03:11:20;100310.75;;;14.25;100.00
11523;BME280;70090;43.208;27.904;2023-11-22T03:13:47;100306.84;;;14.23;100.00
11523;BME280;70090;43.208;27.904;2023-11-22T03:16:16;100315.09;;;14.26;100.00
11523;BME280;70090;43.208;27.904;2023-11-22T03:18:44;100306.41;;;14.28;100.00
11523;BME280;70090;43.208;27.904;2023-11-22T03:21:11;100303.63;;;14.28;100.00
11523;BME280;70090;43.208;27.904;2023-11-22T03:23:38;100310.75;;;14.25;100.00
11523;BME280;70090;43.208;27.904;2023-11-22T03:26:06;100300.59;;;14.05;100.00
11523;BME280;70090;43.208;27.904;2023-11-22T03:28:33;100314.06;;;13.99;100.00
11523;BME280;70090;43.208;27.904;2023-11-22T03:31:00;100313.31;;;13.92;100.00
11523;BME280;70090;43.208;27.904;2023-11-22T03:33:29;100310.53;;;13.92;100.00
11523;BME280;70090;43.208;27.904;2023-11-22T03:35:56;100305.41;;;13.87;100.00
11523;BME280;70090;43.208;27.904;2023-11-22T03:38:24;100316.53;;;13.76;100.00
11523;BME280;70090;43.208;27.904;2023-11-22T03:40:51;100319.69;;;13.75;100.00
11523;BME280;70090;43.208;27.904;2023-11-22T03:43:19;100319.31;;;13.66;100.00
11523;BME280;70090;43.208;27.904;2023-11-22T03:45:46;100320.56;;;13.51;100.00
11523;BME280;70090;43.208;27.904;2023-11-22T03:48:13;100316.66;;;13.27;100.00
11523;BME280;70090;43.208;27.904;2023-11-22T03:50:41;100311.97;;;13.10;100.00
11523;BME280;70090;43.208;27.904;2023-11-22T03:53:08;100315.50;;;12.86;100.00
11523;BME280;70090;43.208;27.904;2023-11-22T03:55:35;100317.47;;;12.58;100.00
11523;BME280;70090;43.208;27.904;2023-11-22T03:58:02;100313.91;;;12.33;100.00
11523;BME280;70090;43.208;27.904;2023-11-22T04:00:29;100326.50;;;12.20;100.00
11523;BME280;70090;43.208;27.904;2023-11-22T04:02:58;100323.72;;;12.17;100.00
11523;BME280;70090;43.208;27.904;2023-11-22T04:05:26;100322.13;;;12.12;100.00
11523;BME280;70090;43.208;27.904;2023-11-22T04:07:54;100326.84;;;12.01;100.00
11523;BME280;70090;43.208;27.904;2023-11-22T04:10:22;100324.81;;;11.88;100.00
11523;BME280;70090;43.208;27.904;2023-11-22T04:12:49;100333.81;;;11.74;100.00
11523;BME280;70090;43.208;27.904;2023-11-22T04:15:16;100330.63;;;11.69;100.00
11523;BME280;70090;43.208;27.904;2023-11-22T04:17:43;100326.66;;;11.59;100.00
11523;BME280;70090;43.208;27.904;2023-11-22T04:20:11;100330.56;;;11.55;100.00
11523;BME280;70090;43.208;27.904;2023-11-22T04:22:40;100325.00;;;11.51;100.00
11523;BME280;70090;43.208;27.904;2023-11-22T04:25:09;100335.25;;;11.51;100.00
11523;BME280;70090;43.208;27.904;2023-11-22T04:27:37;100341.16;;;11.49;100.00
11523;BME280;70090;43.208;27.904;2023-11-22T04:30:07;100338.41;;;11.49;100.00
11523;BME280;70090;43.208;27.904;2023-11-22T04:32:39;100333.63;;;11.43;100.00
11523;BME280;70090;43.208;27.904;2023-11-22T04:35:06;100342.31;;;11.48;100.00
11523;BME280;70090;43.208;27.904;2023-11-22T04:37:35;100342.31;;;11.48;100.00
11523;BME280;70090;43.208;27.904;2023-11-22T04:40:03;100332.09;;;11.45;100.00
11523;BME280;70090;43.208;27.904;2023-11-22T04:42:34;100340.69;;;11.40;100.00
11523;BME280;70090;43.208;27.904;2023-11-22T04:45:02;100342.25;;;11.34;100.00
11523;BME280;70090;43.208;27.904;2023-11-22T04:47:29;100329.19;;;11.28;100.00
11523;BME280;70090;43.208;27.904;2023-11-22T04:49:56;100337.03;;;11.22;100.00
11523;BME280;70090;43.208;27.904;2023-11-22T04:52:23;100336.25;;;11.18;100.00
11523;BME280;70090;43.208;27.904;2023-11-22T04:54:50;100347.63;;;11.13;100.00
11523;BME280;70090;43.208;27.904;2023-11-22T04:57:17;100351.22;;;11.21;100.00
11523;BME280;70090;43.208;27.904;2023-11-22T04:59:45;100346.47;;;11.18;100.00
11523;BME280;70090;43.208;27.904;2023-11-22T05:02:12;100355.56;;;11.25;100.00
11523;BME280;70090;43.208;27.904;2023-11-22T05:04:39;100352.84;;;11.29;100.00
11523;BME280;70090;43.208;27.904;2023-11-22T05:07:08;100355.19;;;11.30;100.00
11523;BME280;70090;43.208;27.904;2023-11-22T05:09:35;100355.97;;;11.27;100.00
11523;BME280;70090;43.208;27.904;2023-11-22T05:12:03;100353.16;;;11.20;100.00
11523;BME280;70090;43.208;27.904;2023-11-22T05:14:30;100346.44;;;11.14;100.00
11523;BME280;70090;43.208;27.904;2023-11-22T05:16:58;100358.59;;;11.10;100.00
11523;BME280;70090;43.208;27.904;2023-11-22T05:19:25;100366.84;;;11.06;100.00
11523;BME280;70090;43.208;27.904;2023-11-22T05:21:51;100375.88;;;11.03;100.00
11523;BME280;70090;43.208;27.904;2023-11-22T05:24:18;100374.28;;;11.06;100.00
11523;BME280;70090;43.208;27.904;2023-11-22T05:26:45;100384.53;;;11.05;100.00
11523;BME280;70090;43.208;27.904;2023-11-22T05:29:12;100398.28;;;11.02;100.00
11523;BME280;70090;43.208;27.904;2023-11-22T05:31:39;100392.41;;;11.03;100.00
11523;BME280;70090;43.208;27.904;2023-11-22T05:34:08;100397.47;;;11.01;100.00
11523;BME280;70090;43.208;27.904;2023-11-22T05:36:34;100401.41;;;11.00;100.00
11523;BME280;70090;43.208;27.904;2023-11-22T05:39:01;100404.97;;;11.01;100.00
11523;BME280;70090;43.208;27.904;2023-11-22T05:41:30;100404.19;;;11.04;100.00
11523;BME280;70090;43.208;27.904;2023-11-22T05:43:57;100399.09;;;11.06;100.00
11523;BME280;70090;43.208;27.904;2023-11-22T05:46:25;100403.41;;;11.07;100.00
11523;BME280;70090;43.208;27.904;2023-11-22T05:48:52;100415.63;;;11.09;100.00
11523;BME280;70090;43.208;27.904;2023-11-22T05:51:20;100419.97;;;11.10;100.00
11523;BME280;70090;43.208;27.904;2023-11-22T05:53:47;100412.91;;;11.13;100.00
11523;BME280;70090;43.208;27.904;2023-11-22T05:56:14;100428.72;;;11.19;100.00
11523;BME280;70090;43.208;27.904;2023-11-22T05:58:42;100423.22;;;11.23;100.00
11523;BME280;70090;43.208;27.904;2023-11-22T06:01:09;100435.84;;;11.27;100.00
11523;BME280;70090;43.208;27.904;2023-11-22T06:03:37;100445.31;;;11.26;100.00
11523;BME280;70090;43.208;27.904;2023-11-22T06:06:05;100455.88;;;11.21;100.00
11523;BME280;70090;43.208;27.904;2023-11-22T06:08:33;100464.94;;;11.25;100.00
11523;BME280;70090;43.208;27.904;2023-11-22T06:11:00;100464.50;;;11.19;100.00
11523;BME280;70090;43.208;27.904;2023-11-22T06:13:28;100466.50;;;11.22;100.00
11523;BME280;70090;43.208;27.904;2023-11-22T06:15:56;100474.44;;;11.27;100.00
11523;BME280;70090;43.208;27.904;2023-11-22T06:18:23;100481.50;;;11.28;100.00
11523;BME280;70090;43.208;27.904;2023-11-22T06:20:55;100480.31;;;11.26;100.00
11523;BME280;70090;43.208;27.904;2023-11-22T06:23:22;100483.88;;;11.26;100.00
11523;BME280;70090;43.208;27.904;2023-11-22T06:25:50;100479.13;;;11.23;100.00
11523;BME280;70090;43.208;27.904;2023-11-22T06:28:17;100479.13;;;11.27;100.00
11523;BME280;70090;43.208;27.904;2023-11-22T06:30:44;100472.91;;;11.37;100.00
11523;BME280;70090;43.208;27.904;2023-11-22T06:33:11;100475.38;;;11.45;100.00
11523;BME280;70090;43.208;27.904;2023-11-22T06:35:38;100475.50;;;11.59;100.00
11523;BME280;70090;43.208;27.904;2023-11-22T06:38:06;100484.63;;;11.70;100.00
11523;BME280;70090;43.208;27.904;2023-11-22T06:40:33;100485.09;;;11.79;100.00
11523;BME280;70090;43.208;27.904;2023-11-22T06:43:01;100490.25;;;11.88;100.00
11523;BME280;70090;43.208;27.904;2023-11-22T06:45:30;100489.56;;;12.01;100.00
11523;BME280;70090;43.208;27.904;2023-11-22T06:47:57;100490.00;;;12.10;100.00
11523;BME280;70090;43.208;27.904;2023-11-22T06:50:24;100498.63;;;12.05;100.00
11523;BME280;70090;43.208;27.904;2023-11-22T06:52:52;100495.53;;;12.17;100.00
11523;BME280;70090;43.208;27.904;2023-11-22T06:55:20;100488.09;;;12.21;100.00
11523;BME280;70090;43.208;27.904;2023-11-22T06:57:47;100495.59;;;12.24;100.00
11523;BME280;70090;43.208;27.904;2023-11-22T07:00:18;100491.25;;;12.23;100.00
11523;BME280;70090;43.208;27.904;2023-11-22T07:02:45;100493.22;;;12.26;100.00
11523;BME280;70090;43.208;27.904;2023-11-22T07:05:12;100494.03;;;12.33;100.00
11523;BME280;70090;43.208;27.904;2023-11-22T07:07:39;100497.28;;;12.49;100.00
11523;BME280;70090;43.208;27.904;2023-11-22T07:10:07;100513.06;;;12.56;100.00
11523;BME280;70090;43.208;27.904;2023-11-22T07:12:37;100520.97;;;12.61;100.00
11523;BME280;70090;43.208;27.904;2023-11-22T07:15:06;100528.09;;;12.65;100.00
11523;BME280;70090;43.208;27.904;2023-11-22T07:17:36;100521.03;;;12.71;100.00
11523;BME280;70090;43.208;27.904;2023-11-22T07:20:05;100522.66;;;12.83;100.00
11523;BME280;70090;43.208;27.904;2023-11-22T07:22:35;100512.38;;;12.87;100.00
11523;BME280;70090;43.208;27.904;2023-11-22T07:25:02;100528.22;;;12.97;100.00
11523;BME280;70090;43.208;27.904;2023-11-22T07:27:30;100525.88;;;13.02;100.00
11523;BME280;70090;43.208;27.904;2023-11-22T07:29:58;100528.25;;;13.14;100.00
11523;BME280;70090;43.208;27.904;2023-11-22T07:32:25;100530.66;;;13.16;100.00
11523;BME280;70090;43.208;27.904;2023-11-22T07:34:53;100529.84;;;13.19;100.00
11523;BME280;70090;43.208;27.904;2023-11-22T07:37:21;100522.75;;;13.21;100.00
11523;BME280;70090;43.208;27.904;2023-11-22T07:39:49;100521.19;;;13.17;100.00
11523;BME280;70090;43.208;27.904;2023-11-22T07:42:16;100522.75;;;13.18;100.00
11523;BME280;70090;43.208;27.904;2023-11-22T07:44:43;100530.28;;;13.31;100.00
11523;BME280;70090;43.208;27.904;2023-11-22T07:47:11;100537.00;;;13.44;100.00
11523;BME280;70090;43.208;27.904;2023-11-22T07:49:38;100523.94;;;13.62;100.00
11523;BME280;70090;43.208;27.904;2023-11-22T07:52:08;100529.09;;;13.71;100.00
11523;BME280;70090;43.208;27.904;2023-11-22T07:54:39;100528.69;;;13.79;100.00
11523;BME280;70090;43.208;27.904;2023-11-22T07:57:06;100524.31;;;13.96;100.00
11523;BME280;70090;43.208;27.904;2023-11-22T07:59:33;100533.38;;;14.10;100.00
11523;BME280;70090;43.208;27.904;2023-11-22T08:02:04;100531.41;;;14.25;100.00
11523;BME280;70090;43.208;27.904;2023-11-22T08:04:36;100538.91;;;14.38;100.00
11523;BME280;70090;43.208;27.904;2023-11-22T08:07:03;100546.34;;;14.52;100.00
11523;BME280;70090;43.208;27.904;2023-11-22T08:09:32;100547.88;;;14.67;100.00
11523;BME280;70090;43.208;27.904;2023-11-22T08:12:01;100541.47;;;14.84;100.00
11523;BME280;70090;43.208;27.904;2023-11-22T08:14:28;100547.34;;;14.93;100.00
11523;BME280;70090;43.208;27.904;2023-11-22T08:16:55;100541.34;;;15.04;100.00
11523;BME280;70090;43.208;27.904;2023-11-22T08:19:23;100537.72;;;15.14;100.00
11523;BME280;70090;43.208;27.904;2023-11-22T08:21:50;100529.75;;;15.23;100.00
11523;BME280;70090;43.208;27.904;2023-11-22T08:24:18;100532.44;;;15.37;100.00
11523;BME280;70090;43.208;27.904;2023-11-22T08:26:46;100535.50;;;15.53;100.00
11523;BME280;70090;43.208;27.904;2023-11-22T08:29:13;100540.25;;;15.53;100.00
11523;BME280;70090;43.208;27.904;2023-11-22T08:31:41;100542.59;;;15.61;100.00
11523;BME280;70090;43.208;27.904;2023-11-22T08:34:08;100551.25;;;15.70;100.00
11523;BME280;70090;43.208;27.904;2023-11-22T08:36:37;100572.50;;;15.87;100.00
11523;BME280;70090;43.208;27.904;2023-11-22T08:39:04;100580.44;;;15.85;100.00
11523;BME280;70090;43.208;27.904;2023-11-22T08:41:31;100590.34;;;15.25;100.00
11523;BME280;70090;43.208;27.904;2023-11-22T08:43:59;100601.09;;;15.12;100.00
11523;BME280;70090;43.208;27.904;2023-11-22T08:46:27;100591.50;;;15.27;100.00
11523;BME280;70090;43.208;27.904;2023-11-22T08:48:54;100593.41;;;15.44;100.00
11523;BME280;70090;43.208;27.904;2023-11-22T08:51:22;100597.59;;;15.70;100.00
11523;BME280;70090;43.208;27.904;2023-11-22T08:53:48;100597.84;;;15.86;100.00
11523;BME280;70090;43.208;27.904;2023-11-22T08:56:16;100585.84;;;16.03;100.00
11523;BME280;70090;43.208;27.904;2023-11-22T08:58:43;100599.97;;;16.19;100.00
11523;BME280;70090;43.208;27.904;2023-11-22T09:01:11;100595.84;;;16.37;100.00
11523;BME280;70090;43.208;27.904;2023-11-22T09:03:40;100597.59;;;16.58;100.00
11523;BME280;70090;43.208;27.904;2023-11-22T09:06:07;100581.13;;;16.77;100.00
11523;BME280;70090;43.208;27.904;2023-11-22T09:08:35;100592.69;;;17.02;100.00
11523;BME280;70090;43.208;27.904;2023-11-22T09:11:02;100578.88;;;17.25;100.00
11523;BME280;70090;43.208;27.904;2023-11-22T09:13:31;100584.34;;;17.36;100.00
11523;BME280;70090;43.208;27.904;2023-11-22T09:16:00;100587.44;;;17.41;100.00
11523;BME280;70090;43.208;27.904;2023-11-22T09:18:31;100597.34;;;17.42;100.00
11523;BME280;70090;43.208;27.904;2023-11-22T09:20:58;100605.78;;;17.35;100.00
11523;BME280;70090;43.208;27.904;2023-11-22T09:23:26;100608.25;;;17.26;100.00
11523;BME280;70090;43.208;27.904;2023-11-22T09:25:53;100609.13;;;17.23;100.00
11523;BME280;70090;43.208;27.904;2023-11-22T09:28:20;100614.88;;;17.09;100.00
11523;BME280;70090;43.208;27.904;2023-11-22T09:30:47;100617.34;;;17.00;100.00
11523;BME280;70090;43.208;27.904;2023-11-22T09:33:15;100619.00;;;16.94;100.00
11523;BME280;70090;43.208;27.904;2023-11-22T09:35:45;100615.94;;;16.85;100.00
11523;BME280;70090;43.208;27.904;2023-11-22T09:38:14;100623.16;;;16.79;100.00
11523;BME280;70090;43.208;27.904;2023-11-22T09:40:42;100616.66;;;16.59;100.00
11523;BME280;70090;43.208;27.904;2023-11-22T09:43:10;100627.38;;;16.57;100.00
11523;BME280;70090;43.208;27.904;2023-11-22T09:45:37;100624.28;;;16.52;100.00
11523;BME280;70090;43.208;27.904;2023-11-22T09:48:10;100621.91;;;16.50;100.00
11523;BME280;70090;43.208;27.904;2023-11-22T09:50:46;100625.50;;;16.47;100.00
11523;BME280;70090;43.208;27.904;2023-11-22T09:53:25;100617.88;;;16.55;100.00
11523;BME280;70090;43.208;27.904;2023-11-22T09:55:56;100614.13;;;16.72;100.00
11523;BME280;70090;43.208;27.904;2023-11-22T09:58:23;100617.47;;;16.90;100.00
11523;BME280;70090;43.208;27.904;2023-11-22T10:00:51;100616.44;;;17.10;100.00
11523;BME280;70090;43.208;27.904;2023-11-22T10:03:19;100620.06;;;17.37;100.00
11523;BME280;70090;43.208;27.904;2023-11-22T10:05:47;100624.59;;;17.54;100.00
11523;BME280;70090;43.208;27.904;2023-11-22T10:08:14;100628.38;;;17.67;100.00
11523;BME280;70090;43.208;27.904;2023-11-22T10:10:43;100625.25;;;17.88;100.00
11523;BME280;70090;43.208;27.904;2023-11-22T10:13:13;100624.50;;;18.10;100.00
11523;BME280;70090;43.208;27.904;2023-11-22T10:15:40;100623.38;;;18.31;100.00
11523;BME280;70090;43.208;27.904;2023-11-22T10:18:07;100638.19;;;18.47;100.00
11523;BME280;70090;43.208;27.904;2023-11-22T10:20:38;100630.06;;;18.56;100.00
11523;BME280;70090;43.208;27.904;2023-11-22T10:23:09;100642.72;;;18.61;100.00
11523;BME280;70090;43.208;27.904;2023-11-22T10:25:43;100641.75;;;18.71;100.00
11523;BME280;70090;43.208;27.904;2023-11-22T10:28:10;100642.31;;;18.39;100.00
11523;BME280;70090;43.208;27.904;2023-11-22T10:30:37;100642.00;;;18.11;100.00
11523;BME280;70090;43.208;27.904;2023-11-22T10:33:06;100643.28;;;17.80;100.00
11523;BME280;70090;43.208;27.904;2023-11-22T10:35:33;100638.78;;;17.63;100.00
11523;BME280;70090;43.208;27.904;2023-11-22T10:38:00;100646.75;;;17.61;100.00
11523;BME280;70090;43.208;27.904;2023-11-22T10:40:30;100633.31;;;17.56;100.00
11523;BME280;70090;43.208;27.904;2023-11-22T10:42:57;100637.56;;;17.38;100.00
11523;BME280;70090;43.208;27.904;2023-11-22T10:45:26;100644.00;;;17.28;100.00
11523;BME280;70090;43.208;27.904;2023-11-22T10:47:56;100638.50;;;16.91;100.00
11523;BME280;70090;43.208;27.904;2023-11-22T10:50:23;100637.59;;;16.67;100.00
11523;BME280;70090;43.208;27.904;2023-11-22T10:52:52;100636.59;;;16.51;100.00
11523;BME280;70090;43.208;27.904;2023-11-22T10:55:21;100643.38;;;16.46;100.00
11523;BME280;70090;43.208;27.904;2023-11-22T10:57:56;100639.41;;;16.47;100.00
11523;BME280;70090;43.208;27.904;2023-11-22T11:00:29;100635.06;;;16.43;100.00
11523;BME280;70090;43.208;27.904;2023-11-22T11:02:59;100641.81;;;16.45;100.00
11523;BME280;70090;43.208;27.904;2023-11-22T11:05:30;100639.38;;;16.51;100.00
11523;BME280;70090;43.208;27.904;2023-11-22T11:08:01;100646.59;;;16.41;100.00
11523;BME280;70090;43.208;27.904;2023-11-22T11:10:32;100653.03;;;16.28;100.00
11523;BME280;70090;43.208;27.904;2023-11-22T11:13:01;100656.31;;;16.16;100.00
11523;BME280;70090;43.208;27.904;2023-11-22T11:15:28;100657.16;;;16.09;100.00
11523;BME280;70090;43.208;27.904;2023-11-22T11:17:55;100650.84;;;16.05;100.00
11523;BME280;70090;43.208;27.904;2023-11-22T11:20:23;100656.81;;;16.04;100.00
11523;BME280;70090;43.208;27.904;2023-11-22T11:22:50;100661.13;;;16.08;100.00
11523;BME280;70090;43.208;27.904;2023-11-22T11:25:18;100661.22;;;15.98;100.00
11523;BME280;70090;43.208;27.904;2023-11-22T11:27:55;100661.28;;;15.91;100.00
11523;BME280;70090;43.208;27.904;2023-11-22T11:30:48;100669.19;;;15.92;100.00
11523;BME280;70090;43.208;27.904;2023-11-22T11:33:18;100659.69;;;15.93;100.00
11523;BME280;70090;43.208;27.904;2023-11-22T11:35:47;100673.47;;;16.00;100.00
11523;BME280;70090;43.208;27.904;2023-11-22T11:38:15;100660.47;;;15.90;100.00
11523;BME280;70090;43.208;27.904;2023-11-22T11:40:43;100665.31;;;15.79;100.00
11523;BME280;70090;43.208;27.904;2023-11-22T11:43:10;100673.22;;;15.84;100.00
11523;BME280;70090;43.208;27.904;2023-11-22T11:45:39;100685.28;;;15.53;100.00
11523;BME280;70090;43.208;27.904;2023-11-22T11:48:13;100682.16;;;15.48;100.00
11523;BME280;70090;43.208;27.904;2023-11-22T11:50:40;100679.06;;;15.32;100.00
11523;BME280;70090;43.208;27.904;2023-11-22T11:53:08;100685.41;;;15.32;100.00
11523;BME280;70090;43.208;27.904;2023-11-22T11:55:35;100682.22;;;15.23;100.00
11523;BME280;70090;43.208;27.904;2023-11-22T11:58:06;100685.06;;;15.13;100.00
11523;BME280;70090;43.208;27.904;2023-11-22T12:00:35;100696.19;;;15.02;100.00
11523;BME280;70090;43.208;27.904;2023-11-22T12:03:06;100701.34;;;15.00;100.00
11523;BME280;70090;43.208;27.904;2023-11-22T12:05:34;100697.38;;;14.98;100.00
11523;BME280;70090;43.208;27.904;2023-11-22T12:08:01;100707.69;;;14.91;100.00
11523;BME280;70090;43.208;27.904;2023-11-22T12:10:29;100710.88;;;14.86;100.00
11523;BME280;70090;43.208;27.904;2023-11-22T12:12:56;100710.88;;;14.86;100.00
11523;BME280;70090;43.208;27.904;2023-11-22T12:15:24;100720.41;;;14.71;100.00
11523;BME280;70090;43.208;27.904;2023-11-22T12:17:51;100721.97;;;14.72;100.00
11523;BME280;70090;43.208;27.904;2023-11-22T12:20:23;100731.47;;;14.64;100.00
11523;BME280;70090;43.208;27.904;2023-11-22T12:22:53;100733.06;;;14.75;100.00
11523;BME280;70090;43.208;27.904;2023-11-22T12:25:20;100734.25;;;14.67;100.00
11523;BME280;70090;43.208;27.904;2023-11-22T12:27:48;100741.78;;;14.56;100.00
11523;BME280;70090;43.208;27.904;2023-11-22T12:30:31;100752.88;;;14.49;100.00
11523;BME280;70090;43.208;27.904;2023-11-22T12:33:01;100758.00;;;14.51;100.00
11523;BME280;70090;43.208;27.904;2023-11-22T12:35:30;100753.25;;;14.48;100.00